sensor_id;sensor_type;location;lat;lon;timestamp;P1;durP1;ratioP1;P2;durP2;ratioP2
59273;SDS011;45044;41.572;24.730;2022-10-22T00:01:03;21.37;;;15.90;;
59273;SDS011;45044;41.572;24.730;2022-10-22T00:03:30;23.88;;;16.08;;
59273;SDS011;45044;41.572;24.730;2022-10-22T00:05:57;18.58;;;12.63;;
59273;SDS011;45044;41.572;24.730;2022-10-22T00:08:24;20.90;;;13.68;;
59273;SDS011;45044;41.572;24.730;2022-10-22T00:10:51;20.47;;;13.33;;
59273;SDS011;45044;41.572;24.730;2022-10-22T00:13:18;27.33;;;16.10;;
59273;SDS011;45044;41.572;24.730;2022-10-22T00:15:45;19.93;;;13.30;;
59273;SDS011;45044;41.572;24.730;2022-10-22T00:18:12;19.07;;;11.87;;
59273;SDS011;45044;41.572;24.730;2022-10-22T00:20:39;17.80;;;11.17;;
59273;SDS011;45044;41.572;24.730;2022-10-22T00:23:06;15.50;;;10.40;;
59273;SDS011;45044;41.572;24.730;2022-10-22T00:25:34;15.13;;;9.23;;
59273;SDS011;45044;41.572;24.730;2022-10-22T00:28:01;16.63;;;9.37;;
59273;SDS011;45044;41.572;24.730;2022-10-22T00:30:29;17.60;;;10.30;;
59273;SDS011;45044;41.572;24.730;2022-10-22T00:32:55;16.53;;;10.27;;
59273;SDS011;45044;41.572;24.730;2022-10-22T00:35:22;15.90;;;9.98;;
59273;SDS011;45044;41.572;24.730;2022-10-22T00:37:49;14.97;;;9.87;;
59273;SDS011;45044;41.572;24.730;2022-10-22T00:40:16;16.10;;;10.70;;
59273;SDS011;45044;41.572;24.730;2022-10-22T00:42:43;15.27;;;9.77;;
59273;SDS011;45044;41.572;24.730;2022-10-22T00:47:38;14.53;;;9.60;;
59273;SDS011;45044;41.572;24.730;2022-10-22T00:50:13;17.27;;;11.57;;
59273;SDS011;45044;41.572;24.730;2022-10-22T00:52:43;13.87;;;9.80;;
59273;SDS011;45044;41.572;24.730;2022-10-22T00:55:10;15.13;;;10.30;;
59273;SDS011;45044;41.572;24.730;2022-10-22T00:57:38;18.48;;;10.75;;
59273;SDS011;45044;41.572;24.730;2022-10-22T01:00:06;14.13;;;9.43;;
59273;SDS011;45044;41.572;24.730;2022-10-22T01:02:34;15.97;;;10.00;;
59273;SDS011;45044;41.572;24.730;2022-10-22T01:05:01;15.07;;;9.65;;
59273;SDS011;45044;41.572;24.730;2022-10-22T01:07:28;14.32;;;8.70;;
59273;SDS011;45044;41.572;24.730;2022-10-22T01:15:47;12.03;;;8.13;;
59273;SDS011;45044;41.572;24.730;2022-10-22T01:18:23;14.63;;;8.93;;
59273;SDS011;45044;41.572;24.730;2022-10-22T01:31:23;15.37;;;10.33;;
59273;SDS011;45044;41.572;24.730;2022-10-22T01:33:53;16.47;;;10.40;;
59273;SDS011;45044;41.572;24.730;2022-10-22T01:36:20;17.43;;;10.67;;
59273;SDS011;45044;41.572;24.730;2022-10-22T01:38:47;19.20;;;10.73;;
59273;SDS011;45044;41.572;24.730;2022-10-22T01:41:15;18.00;;;10.47;;
59273;SDS011;45044;41.572;24.730;2022-10-22T01:43:42;13.83;;;9.27;;
59273;SDS011;45044;41.572;24.730;2022-10-22T01:46:09;11.53;;;8.60;;
59273;SDS011;45044;41.572;24.730;2022-10-22T01:48:47;16.20;;;9.50;;
59273;SDS011;45044;41.572;24.730;2022-10-22T01:51:23;36.17;;;17.23;;
59273;SDS011;45044;41.572;24.730;2022-10-22T01:53:55;23.30;;;12.27;;
59273;SDS011;45044;41.572;24.730;2022-10-22T02:01:53;43.20;;;21.83;;
59273;SDS011;45044;41.572;24.730;2022-10-22T02:07:24;22.17;;;12.65;;
59273;SDS011;45044;41.572;24.730;2022-10-22T02:10:02;19.40;;;12.43;;
59273;SDS011;45044;41.572;24.730;2022-10-22T02:12:33;18.43;;;11.03;;
59273;SDS011;45044;41.572;24.730;2022-10-22T02:15:00;17.70;;;10.73;;
59273;SDS011;45044;41.572;24.730;2022-10-22T02:17:29;19.63;;;10.90;;
59273;SDS011;45044;41.572;24.730;2022-10-22T02:20:00;56.93;;;27.43;;
59273;SDS011;45044;41.572;24.730;2022-10-22T02:22:38;16.77;;;10.07;;
59273;SDS011;45044;41.572;24.730;2022-10-22T02:25:05;14.87;;;7.87;;
59273;SDS011;45044;41.572;24.730;2022-10-22T02:27:50;12.97;;;7.77;;
59273;SDS011;45044;41.572;24.730;2022-10-22T02:30:37;27.70;;;13.67;;
59273;SDS011;45044;41.572;24.730;2022-10-22T02:33:09;45.73;;;21.00;;
59273;SDS011;45044;41.572;24.730;2022-10-22T02:35:41;31.50;;;15.97;;
59273;SDS011;45044;41.572;24.730;2022-10-22T02:38:08;29.40;;;16.67;;
59273;SDS011;45044;41.572;24.730;2022-10-22T02:40:36;27.63;;;15.70;;
59273;SDS011;45044;41.572;24.730;2022-10-22T02:43:04;28.23;;;14.53;;
59273;SDS011;45044;41.572;24.730;2022-10-22T02:45:31;26.40;;;13.30;;
59273;SDS011;45044;41.572;24.730;2022-10-22T02:47:59;28.27;;;14.17;;
59273;SDS011;45044;41.572;24.730;2022-10-22T02:50:26;30.67;;;18.03;;
59273;SDS011;45044;41.572;24.730;2022-10-22T02:52:53;25.57;;;12.80;;
59273;SDS011;45044;41.572;24.730;2022-10-22T02:55:20;18.30;;;10.77;;
59273;SDS011;45044;41.572;24.730;2022-10-22T02:57:46;15.83;;;10.50;;
59273;SDS011;45044;41.572;24.730;2022-10-22T03:00:13;41.13;;;18.10;;
59273;SDS011;45044;41.572;24.730;2022-10-22T03:02:40;32.60;;;16.47;;
59273;SDS011;45044;41.572;24.730;2022-10-22T03:05:07;40.53;;;19.33;;
59273;SDS011;45044;41.572;24.730;2022-10-22T03:07:34;29.50;;;14.17;;
59273;SDS011;45044;41.572;24.730;2022-10-22T03:10:01;30.27;;;14.37;;
59273;SDS011;45044;41.572;24.730;2022-10-22T03:12:28;36.50;;;17.27;;
59273;SDS011;45044;41.572;24.730;2022-10-22T03:14:55;24.37;;;14.77;;
59273;SDS011;45044;41.572;24.730;2022-10-22T03:17:21;63.47;;;32.43;;
59273;SDS011;45044;41.572;24.730;2022-10-22T03:19:48;60.53;;;34.63;;
59273;SDS011;45044;41.572;24.730;2022-10-22T03:22:17;85.07;;;41.00;;
59273;SDS011;45044;41.572;24.730;2022-10-22T03:24:49;118.10;;;45.63;;
59273;SDS011;45044;41.572;24.730;2022-10-22T03:27:20;35.20;;;17.90;;
59273;SDS011;45044;41.572;24.730;2022-10-22T03:29:49;19.70;;;10.83;;
59273;SDS011;45044;41.572;24.730;2022-10-22T03:32:17;14.83;;;9.53;;
59273;SDS011;45044;41.572;24.730;2022-10-22T03:34:44;16.00;;;9.50;;
59273;SDS011;45044;41.572;24.730;2022-10-22T03:37:11;17.27;;;10.57;;
59273;SDS011;45044;41.572;24.730;2022-10-22T03:39:38;26.13;;;15.37;;
59273;SDS011;45044;41.572;24.730;2022-10-22T03:42:05;32.80;;;16.80;;
59273;SDS011;45044;41.572;24.730;2022-10-22T03:44:34;28.20;;;13.90;;
59273;SDS011;45044;41.572;24.730;2022-10-22T03:47:02;25.43;;;14.83;;
59273;SDS011;45044;41.572;24.730;2022-10-22T03:49:29;23.73;;;13.40;;
59273;SDS011;45044;41.572;24.730;2022-10-22T03:52:10;17.97;;;12.07;;
59273;SDS011;45044;41.572;24.730;2022-10-22T03:54:39;32.27;;;17.83;;
59273;SDS011;45044;41.572;24.730;2022-10-22T03:57:07;19.27;;;11.40;;
59273;SDS011;45044;41.572;24.730;2022-10-22T03:59:39;27.13;;;13.83;;
59273;SDS011;45044;41.572;24.730;2022-10-22T04:02:08;54.50;;;25.77;;
59273;SDS011;45044;41.572;24.730;2022-10-22T04:04:36;58.17;;;29.87;;
59273;SDS011;45044;41.572;24.730;2022-10-22T04:07:04;22.70;;;12.87;;
59273;SDS011;45044;41.572;24.730;2022-10-22T04:09:32;15.23;;;9.70;;
59273;SDS011;45044;41.572;24.730;2022-10-22T04:11:59;13.83;;;9.50;;
59273;SDS011;45044;41.572;24.730;2022-10-22T04:14:26;17.67;;;9.87;;
59273;SDS011;45044;41.572;24.730;2022-10-22T04:16:53;23.20;;;13.97;;
59273;SDS011;45044;41.572;24.730;2022-10-22T04:19:20;20.00;;;11.17;;
59273;SDS011;45044;41.572;24.730;2022-10-22T04:21:46;18.07;;;11.13;;
59273;SDS011;45044;41.572;24.730;2022-10-22T04:24:13;25.27;;;14.43;;
59273;SDS011;45044;41.572;24.730;2022-10-22T04:26:40;23.00;;;12.97;;
59273;SDS011;45044;41.572;24.730;2022-10-22T04:29:06;20.63;;;12.07;;
59273;SDS011;45044;41.572;24.730;2022-10-22T04:31:40;19.83;;;11.10;;
59273;SDS011;45044;41.572;24.730;2022-10-22T04:34:07;20.63;;;12.33;;
59273;SDS011;45044;41.572;24.730;2022-10-22T04:36:33;20.97;;;12.10;;
59273;SDS011;45044;41.572;24.730;2022-10-22T04:39:00;21.73;;;13.60;;
59273;SDS011;45044;41.572;24.730;2022-10-22T04:41:29;20.60;;;12.30;;
59273;SDS011;45044;41.572;24.730;2022-10-22T04:43:58;45.27;;;21.50;;
59273;SDS011;45044;41.572;24.730;2022-10-22T04:46:26;28.43;;;17.23;;
59273;SDS011;45044;41.572;24.730;2022-10-22T04:48:55;21.73;;;12.67;;
59273;SDS011;45044;41.572;24.730;2022-10-22T04:51:22;19.53;;;11.07;;
59273;SDS011;45044;41.572;24.730;2022-10-22T04:53:50;20.93;;;12.10;;
59273;SDS011;45044;41.572;24.730;2022-10-22T04:56:18;57.37;;;25.87;;
59273;SDS011;45044;41.572;24.730;2022-10-22T04:58:51;114.23;;;48.33;;
59273;SDS011;45044;41.572;24.730;2022-10-22T05:01:20;171.20;;;67.40;;
59273;SDS011;45044;41.572;24.730;2022-10-22T05:03:50;58.20;;;28.30;;
59273;SDS011;45044;41.572;24.730;2022-10-22T05:06:25;42.40;;;20.17;;
59273;SDS011;45044;41.572;24.730;2022-10-22T05:08:53;25.23;;;15.33;;
59273;SDS011;45044;41.572;24.730;2022-10-22T05:11:25;20.10;;;12.30;;
59273;SDS011;45044;41.572;24.730;2022-10-22T05:13:54;18.87;;;12.47;;
59273;SDS011;45044;41.572;24.730;2022-10-22T05:16:22;32.30;;;18.80;;
59273;SDS011;45044;41.572;24.730;2022-10-22T05:18:49;42.97;;;23.10;;
59273;SDS011;45044;41.572;24.730;2022-10-22T05:21:17;32.20;;;18.27;;
59273;SDS011;45044;41.572;24.730;2022-10-22T05:23:46;24.03;;;14.97;;
59273;SDS011;45044;41.572;24.730;2022-10-22T05:26:15;19.27;;;11.43;;
59273;SDS011;45044;41.572;24.730;2022-10-22T05:28:45;24.17;;;14.13;;
59273;SDS011;45044;41.572;24.730;2022-10-22T05:31:12;24.10;;;14.03;;
59273;SDS011;45044;41.572;24.730;2022-10-22T05:33:39;23.73;;;13.90;;
59273;SDS011;45044;41.572;24.730;2022-10-22T05:36:07;25.00;;;16.43;;
59273;SDS011;45044;41.572;24.730;2022-10-22T05:38:37;21.80;;;15.80;;
59273;SDS011;45044;41.572;24.730;2022-10-22T05:41:12;26.27;;;16.83;;
59273;SDS011;45044;41.572;24.730;2022-10-22T05:43:40;24.77;;;14.77;;
59273;SDS011;45044;41.572;24.730;2022-10-22T05:46:08;31.53;;;18.87;;
59273;SDS011;45044;41.572;24.730;2022-10-22T05:48:47;35.00;;;22.73;;
59273;SDS011;45044;41.572;24.730;2022-10-22T05:51:22;46.60;;;28.45;;
59273;SDS011;45044;41.572;24.730;2022-10-22T05:53:53;33.30;;;20.88;;
59273;SDS011;45044;41.572;24.730;2022-10-22T05:56:22;30.00;;;20.73;;
59273;SDS011;45044;41.572;24.730;2022-10-22T05:58:49;33.63;;;21.90;;
59273;SDS011;45044;41.572;24.730;2022-10-22T06:01:21;41.75;;;27.30;;
59273;SDS011;45044;41.572;24.730;2022-10-22T06:03:52;39.13;;;27.77;;
59273;SDS011;45044;41.572;24.730;2022-10-22T06:06:27;41.22;;;28.70;;
59273;SDS011;45044;41.572;24.730;2022-10-22T06:09:00;25.10;;;17.10;;
59273;SDS011;45044;41.572;24.730;2022-10-22T06:11:29;19.67;;;12.57;;
59273;SDS011;45044;41.572;24.730;2022-10-22T06:14:00;18.42;;;13.93;;
59273;SDS011;45044;41.572;24.730;2022-10-22T06:16:28;20.15;;;14.40;;
59273;SDS011;45044;41.572;24.730;2022-10-22T06:18:55;18.63;;;15.00;;
59273;SDS011;45044;41.572;24.730;2022-10-22T06:21:25;20.80;;;16.38;;
59273;SDS011;45044;41.572;24.730;2022-10-22T06:23:51;25.70;;;19.05;;
59273;SDS011;45044;41.572;24.730;2022-10-22T06:26:24;32.20;;;24.35;;
59273;SDS011;45044;41.572;24.730;2022-10-22T06:28:51;28.20;;;22.52;;
59273;SDS011;45044;41.572;24.730;2022-10-22T06:31:18;27.10;;;21.42;;
59273;SDS011;45044;41.572;24.730;2022-10-22T06:33:45;29.70;;;21.35;;
59273;SDS011;45044;41.572;24.730;2022-10-22T06:36:12;25.55;;;19.38;;
59273;SDS011;45044;41.572;24.730;2022-10-22T06:38:41;20.60;;;17.55;;
59273;SDS011;45044;41.572;24.730;2022-10-22T06:41:10;21.38;;;17.23;;
59273;SDS011;45044;41.572;24.730;2022-10-22T06:43:38;20.83;;;16.25;;
59273;SDS011;45044;41.572;24.730;2022-10-22T06:46:07;21.60;;;16.42;;
59273;SDS011;45044;41.572;24.730;2022-10-22T06:48:35;14.05;;;10.80;;
59273;SDS011;45044;41.572;24.730;2022-10-22T06:51:04;17.10;;;13.35;;
59273;SDS011;45044;41.572;24.730;2022-10-22T06:53:36;18.20;;;13.90;;
59273;SDS011;45044;41.572;24.730;2022-10-22T06:56:08;19.90;;;13.77;;
59273;SDS011;45044;41.572;24.730;2022-10-22T06:58:36;19.23;;;13.80;;
59273;SDS011;45044;41.572;24.730;2022-10-22T07:01:10;18.75;;;14.73;;
59273;SDS011;45044;41.572;24.730;2022-10-22T07:03:39;17.42;;;13.38;;
59273;SDS011;45044;41.572;24.730;2022-10-22T07:06:08;16.75;;;13.90;;
59273;SDS011;45044;41.572;24.730;2022-10-22T07:08:36;14.75;;;12.50;;
59273;SDS011;45044;41.572;24.730;2022-10-22T07:11:14;15.23;;;12.95;;
59273;SDS011;45044;41.572;24.730;2022-10-22T07:13:42;15.48;;;12.75;;
59273;SDS011;45044;41.572;24.730;2022-10-22T07:16:11;14.10;;;11.57;;
59273;SDS011;45044;41.572;24.730;2022-10-22T07:18:38;13.93;;;11.63;;
59273;SDS011;45044;41.572;24.730;2022-10-22T07:21:06;18.20;;;15.18;;
59273;SDS011;45044;41.572;24.730;2022-10-22T07:23:34;19.70;;;16.30;;
59273;SDS011;45044;41.572;24.730;2022-10-22T07:26:01;17.60;;;13.63;;
59273;SDS011;45044;41.572;24.730;2022-10-22T07:28:29;16.88;;;14.73;;
59273;SDS011;45044;41.572;24.730;2022-10-22T07:30:56;19.52;;;15.63;;
59273;SDS011;45044;41.572;24.730;2022-10-22T07:33:22;16.50;;;14.80;;
59273;SDS011;45044;41.572;24.730;2022-10-22T07:35:49;11.23;;;9.13;;
59273;SDS011;45044;41.572;24.730;2022-10-22T07:38:16;9.98;;;8.68;;
59273;SDS011;45044;41.572;24.730;2022-10-22T07:40:42;12.25;;;9.50;;
59273;SDS011;45044;41.572;24.730;2022-10-22T07:43:09;8.00;;;6.25;;
59273;SDS011;45044;41.572;24.730;2022-10-22T07:45:36;9.30;;;7.00;;
59273;SDS011;45044;41.572;24.730;2022-10-22T07:48:02;8.35;;;5.90;;
59273;SDS011;45044;41.572;24.730;2022-10-22T07:50:29;10.35;;;7.55;;
59273;SDS011;45044;41.572;24.730;2022-10-22T07:52:56;9.80;;;7.95;;
59273;SDS011;45044;41.572;24.730;2022-10-22T07:55:24;10.40;;;7.80;;
59273;SDS011;45044;41.572;24.730;2022-10-22T07:57:51;10.18;;;8.15;;
59273;SDS011;45044;41.572;24.730;2022-10-22T08:00:18;12.98;;;9.35;;
59273;SDS011;45044;41.572;24.730;2022-10-22T08:02:50;13.98;;;10.35;;
59273;SDS011;45044;41.572;24.730;2022-10-22T08:05:17;13.43;;;10.80;;
59273;SDS011;45044;41.572;24.730;2022-10-22T08:07:44;15.25;;;9.93;;
59273;SDS011;45044;41.572;24.730;2022-10-22T08:10:11;14.38;;;11.32;;
59273;SDS011;45044;41.572;24.730;2022-10-22T08:12:39;14.82;;;11.20;;
59273;SDS011;45044;41.572;24.730;2022-10-22T08:15:07;14.15;;;9.65;;
59273;SDS011;45044;41.572;24.730;2022-10-22T08:17:35;11.93;;;9.18;;
59273;SDS011;45044;41.572;24.730;2022-10-22T08:20:02;11.63;;;6.10;;
59273;SDS011;45044;41.572;24.730;2022-10-22T08:22:30;8.13;;;6.18;;
59273;SDS011;45044;41.572;24.730;2022-10-22T08:24:56;8.63;;;5.32;;
59273;SDS011;45044;41.572;24.730;2022-10-22T08:27:24;8.88;;;6.30;;
59273;SDS011;45044;41.572;24.730;2022-10-22T08:29:51;10.35;;;6.55;;
59273;SDS011;45044;41.572;24.730;2022-10-22T08:32:17;8.32;;;4.90;;
59273;SDS011;45044;41.572;24.730;2022-10-22T08:34:44;19.85;;;17.75;;
59273;SDS011;45044;41.572;24.730;2022-10-22T08:37:12;6.30;;;3.50;;
59273;SDS011;45044;41.572;24.730;2022-10-22T08:39:39;10.50;;;5.60;;
59273;SDS011;45044;41.572;24.730;2022-10-22T08:47:39;6.75;;;3.65;;
59273;SDS011;45044;41.572;24.730;2022-10-22T08:53:29;6.10;;;4.38;;
59273;SDS011;45044;41.572;24.730;2022-10-22T08:56:04;5.80;;;3.92;;
59273;SDS011;45044;41.572;24.730;2022-10-22T08:58:34;7.90;;;5.43;;
59273;SDS011;45044;41.572;24.730;2022-10-22T09:01:37;11.27;;;6.80;;
59273;SDS011;45044;41.572;24.730;2022-10-22T09:06:42;8.63;;;5.07;;
59273;SDS011;45044;41.572;24.730;2022-10-22T09:09:16;6.70;;;4.05;;
59273;SDS011;45044;41.572;24.730;2022-10-22T09:11:45;7.30;;;4.57;;
59273;SDS011;45044;41.572;24.730;2022-10-22T09:14:18;7.72;;;4.65;;
59273;SDS011;45044;41.572;24.730;2022-10-22T09:25:35;4.68;;;2.75;;
59273;SDS011;45044;41.572;24.730;2022-10-22T09:28:02;4.90;;;3.10;;
59273;SDS011;45044;41.572;24.730;2022-10-22T09:30:32;3.92;;;2.78;;
59273;SDS011;45044;41.572;24.730;2022-10-22T09:33:05;5.30;;;2.45;;
59273;SDS011;45044;41.572;24.730;2022-10-22T09:35:47;4.93;;;3.05;;
59273;SDS011;45044;41.572;24.730;2022-10-22T09:38:19;4.80;;;3.30;;
59273;SDS011;45044;41.572;24.730;2022-10-22T09:40:54;5.25;;;3.45;;
59273;SDS011;45044;41.572;24.730;2022-10-22T09:43:22;4.05;;;2.88;;
59273;SDS011;45044;41.572;24.730;2022-10-22T09:46:13;4.10;;;3.00;;
59273;SDS011;45044;41.572;24.730;2022-10-22T09:48:47;4.60;;;2.95;;
59273;SDS011;45044;41.572;24.730;2022-10-22T09:51:21;4.88;;;3.40;;
59273;SDS011;45044;41.572;24.730;2022-10-22T09:53:56;6.80;;;4.13;;
59273;SDS011;45044;41.572;24.730;2022-10-22T09:58:57;6.78;;;3.67;;
59273;SDS011;45044;41.572;24.730;2022-10-22T10:01:28;4.35;;;3.42;;
59273;SDS011;45044;41.572;24.730;2022-10-22T10:04:08;5.45;;;3.38;;
59273;SDS011;45044;41.572;24.730;2022-10-22T10:06:37;5.85;;;3.00;;
59273;SDS011;45044;41.572;24.730;2022-10-22T10:09:16;5.25;;;2.88;;
59273;SDS011;45044;41.572;24.730;2022-10-22T10:11:45;3.22;;;2.25;;
59273;SDS011;45044;41.572;24.730;2022-10-22T10:14:19;5.03;;;2.47;;
59273;SDS011;45044;41.572;24.730;2022-10-22T10:27:41;4.75;;;2.78;;
59273;SDS011;45044;41.572;24.730;2022-10-22T10:30:14;3.97;;;2.50;;
59273;SDS011;45044;41.572;24.730;2022-10-22T10:35:24;3.65;;;2.65;;
59273;SDS011;45044;41.572;24.730;2022-10-22T10:54:06;3.88;;;2.30;;
59273;SDS011;45044;41.572;24.730;2022-10-22T10:57:03;4.15;;;2.58;;
59273;SDS011;45044;41.572;24.730;2022-10-22T11:10:58;4.22;;;2.53;;
59273;SDS011;45044;41.572;24.730;2022-10-22T11:19:06;4.70;;;2.78;;
59273;SDS011;45044;41.572;24.730;2022-10-22T11:22:13;5.35;;;3.05;;
59273;SDS011;45044;41.572;24.730;2022-10-22T11:24:45;3.10;;;2.50;;
59273;SDS011;45044;41.572;24.730;2022-10-22T11:27:35;3.22;;;2.30;;
59273;SDS011;45044;41.572;24.730;2022-10-22T11:30:12;3.22;;;2.50;;
59273;SDS011;45044;41.572;24.730;2022-10-22T11:32:52;4.25;;;2.55;;
59273;SDS011;45044;41.572;24.730;2022-10-22T11:35:23;4.00;;;2.60;;
59273;SDS011;45044;41.572;24.730;2022-10-22T11:37:53;3.75;;;2.88;;
59273;SDS011;45044;41.572;24.730;2022-10-22T11:42:56;3.55;;;2.35;;
59273;SDS011;45044;41.572;24.730;2022-10-22T11:45:34;4.28;;;2.97;;
59273;SDS011;45044;41.572;24.730;2022-10-22T11:50:43;4.47;;;2.83;;
59273;SDS011;45044;41.572;24.730;2022-10-22T11:53:37;4.32;;;3.15;;
59273;SDS011;45044;41.572;24.730;2022-10-22T11:58:39;4.82;;;3.40;;
59273;SDS011;45044;41.572;24.730;2022-10-22T12:01:24;4.97;;;3.20;;
59273;SDS011;45044;41.572;24.730;2022-10-22T12:07:28;5.57;;;3.13;;
59273;SDS011;45044;41.572;24.730;2022-10-22T12:09:56;4.72;;;3.15;;
59273;SDS011;45044;41.572;24.730;2022-10-22T12:12:23;6.80;;;3.33;;
59273;SDS011;45044;41.572;24.730;2022-10-22T12:14:56;5.35;;;3.38;;
59273;SDS011;45044;41.572;24.730;2022-10-22T12:17:24;5.00;;;3.38;;
59273;SDS011;45044;41.572;24.730;2022-10-22T12:20:12;3.88;;;2.83;;
59273;SDS011;45044;41.572;24.730;2022-10-22T12:22:39;6.15;;;3.20;;
59273;SDS011;45044;41.572;24.730;2022-10-22T12:25:17;5.03;;;3.28;;
59273;SDS011;45044;41.572;24.730;2022-10-22T12:27:52;6.00;;;2.92;;
59273;SDS011;45044;41.572;24.730;2022-10-22T12:30:24;7.53;;;4.28;;
59273;SDS011;45044;41.572;24.730;2022-10-22T12:32:54;7.63;;;4.10;;
59273;SDS011;45044;41.572;24.730;2022-10-22T12:35:24;5.55;;;3.75;;
59273;SDS011;45044;41.572;24.730;2022-10-22T12:37:54;6.10;;;3.88;;
59273;SDS011;45044;41.572;24.730;2022-10-22T12:40:26;6.80;;;4.05;;
59273;SDS011;45044;41.572;24.730;2022-10-22T12:43:06;6.20;;;4.47;;
59273;SDS011;45044;41.572;24.730;2022-10-22T12:45:36;5.75;;;3.72;;
59273;SDS011;45044;41.572;24.730;2022-10-22T12:48:05;5.57;;;4.05;;
59273;SDS011;45044;41.572;24.730;2022-10-22T12:50:40;10.73;;;6.75;;
59273;SDS011;45044;41.572;24.730;2022-10-22T12:53:20;29.40;;;23.40;;
59273;SDS011;45044;41.572;24.730;2022-10-22T12:55:52;9.27;;;6.38;;
59273;SDS011;45044;41.572;24.730;2022-10-22T12:58:27;11.27;;;8.07;;
59273;SDS011;45044;41.572;24.730;2022-10-22T13:00:59;7.82;;;5.38;;
59273;SDS011;45044;41.572;24.730;2022-10-22T13:03:49;19.35;;;15.30;;
59273;SDS011;45044;41.572;24.730;2022-10-22T13:06:28;14.48;;;10.23;;
59273;SDS011;45044;41.572;24.730;2022-10-22T13:12:01;19.60;;;11.30;;
59273;SDS011;45044;41.572;24.730;2022-10-22T13:20:12;9.60;;;5.50;;
59273;SDS011;45044;41.572;24.730;2022-10-22T13:25:31;7.35;;;5.00;;
59273;SDS011;45044;41.572;24.730;2022-10-22T13:28:01;7.32;;;5.03;;
59273;SDS011;45044;41.572;24.730;2022-10-22T13:30:50;6.78;;;4.93;;
59273;SDS011;45044;41.572;24.730;2022-10-22T13:35:55;9.45;;;4.65;;
59273;SDS011;45044;41.572;24.730;2022-10-22T13:38:23;7.53;;;5.45;;
59273;SDS011;45044;41.572;24.730;2022-10-22T13:40:51;7.70;;;5.18;;
59273;SDS011;45044;41.572;24.730;2022-10-22T13:43:18;7.60;;;4.97;;
59273;SDS011;45044;41.572;24.730;2022-10-22T13:45:46;7.57;;;4.72;;
59273;SDS011;45044;41.572;24.730;2022-10-22T13:48:14;7.75;;;5.18;;
59273;SDS011;45044;41.572;24.730;2022-10-22T13:50:53;7.97;;;5.28;;
59273;SDS011;45044;41.572;24.730;2022-10-22T13:53:21;8.30;;;5.40;;
59273;SDS011;45044;41.572;24.730;2022-10-22T13:55:50;7.43;;;5.18;;
59273;SDS011;45044;41.572;24.730;2022-10-22T13:58:18;8.27;;;5.68;;
59273;SDS011;45044;41.572;24.730;2022-10-22T14:00:48;8.70;;;6.45;;
59273;SDS011;45044;41.572;24.730;2022-10-22T14:03:22;8.88;;;6.40;;
59273;SDS011;45044;41.572;24.730;2022-10-22T14:05:51;9.40;;;6.03;;
59273;SDS011;45044;41.572;24.730;2022-10-22T14:08:20;14.38;;;10.25;;
59273;SDS011;45044;41.572;24.730;2022-10-22T14:10:48;11.68;;;8.48;;
59273;SDS011;45044;41.572;24.730;2022-10-22T14:13:15;10.95;;;7.07;;
59273;SDS011;45044;41.572;24.730;2022-10-22T14:15:44;10.32;;;6.88;;
59273;SDS011;45044;41.572;24.730;2022-10-22T14:18:23;9.75;;;6.57;;
59273;SDS011;45044;41.572;24.730;2022-10-22T14:20:53;8.88;;;6.60;;
59273;SDS011;45044;41.572;24.730;2022-10-22T14:23:26;7.10;;;5.25;;
59273;SDS011;45044;41.572;24.730;2022-10-22T14:25:55;8.55;;;5.65;;
59273;SDS011;45044;41.572;24.730;2022-10-22T14:28:22;8.32;;;5.82;;
59273;SDS011;45044;41.572;24.730;2022-10-22T14:30:50;8.70;;;6.03;;
59273;SDS011;45044;41.572;24.730;2022-10-22T14:33:18;15.13;;;8.32;;
59273;SDS011;45044;41.572;24.730;2022-10-22T14:35:57;12.43;;;7.88;;
59273;SDS011;45044;41.572;24.730;2022-10-22T14:38:27;15.73;;;10.27;;
59273;SDS011;45044;41.572;24.730;2022-10-22T14:40:54;14.63;;;9.85;;
59273;SDS011;45044;41.572;24.730;2022-10-22T14:43:23;18.00;;;10.25;;
59273;SDS011;45044;41.572;24.730;2022-10-22T14:45:52;14.85;;;9.75;;
59273;SDS011;45044;41.572;24.730;2022-10-22T14:48:19;14.75;;;9.27;;
59273;SDS011;45044;41.572;24.730;2022-10-22T14:50:46;15.50;;;10.60;;
59273;SDS011;45044;41.572;24.730;2022-10-22T14:53:14;16.75;;;9.68;;
59273;SDS011;45044;41.572;24.730;2022-10-22T14:55:42;15.10;;;10.23;;
59273;SDS011;45044;41.572;24.730;2022-10-22T14:58:12;19.88;;;13.18;;
59273;SDS011;45044;41.572;24.730;2022-10-22T15:00:40;23.65;;;15.75;;
59273;SDS011;45044;41.572;24.730;2022-10-22T15:03:08;22.73;;;14.70;;
59273;SDS011;45044;41.572;24.730;2022-10-22T15:05:38;25.20;;;18.85;;
59273;SDS011;45044;41.572;24.730;2022-10-22T15:08:10;30.05;;;23.50;;
59273;SDS011;45044;41.572;24.730;2022-10-22T15:10:38;34.42;;;25.90;;
59273;SDS011;45044;41.572;24.730;2022-10-22T15:13:05;35.10;;;26.88;;
59273;SDS011;45044;41.572;24.730;2022-10-22T15:15:32;31.17;;;22.58;;
59273;SDS011;45044;41.572;24.730;2022-10-22T15:18:04;32.95;;;25.45;;
59273;SDS011;45044;41.572;24.730;2022-10-22T15:20:31;38.25;;;29.38;;
59273;SDS011;45044;41.572;24.730;2022-10-22T15:22:58;27.95;;;24.15;;
59273;SDS011;45044;41.572;24.730;2022-10-22T15:25:24;39.50;;;31.92;;
59273;SDS011;45044;41.572;24.730;2022-10-22T15:27:51;32.42;;;26.88;;
59273;SDS011;45044;41.572;24.730;2022-10-22T15:30:24;34.38;;;25.27;;
59273;SDS011;45044;41.572;24.730;2022-10-22T15:32:51;34.95;;;23.23;;
59273;SDS011;45044;41.572;24.730;2022-10-22T15:35:18;32.20;;;22.48;;
59273;SDS011;45044;41.572;24.730;2022-10-22T15:37:44;37.92;;;27.00;;
59273;SDS011;45044;41.572;24.730;2022-10-22T15:40:11;43.03;;;30.83;;
59273;SDS011;45044;41.572;24.730;2022-10-22T15:42:38;41.60;;;30.73;;
59273;SDS011;45044;41.572;24.730;2022-10-22T15:45:05;54.72;;;40.05;;
59273;SDS011;45044;41.572;24.730;2022-10-22T15:47:32;57.25;;;42.13;;
59273;SDS011;45044;41.572;24.730;2022-10-22T15:49:59;27.05;;;20.45;;
59273;SDS011;45044;41.572;24.730;2022-10-22T15:52:27;29.80;;;23.15;;
59273;SDS011;45044;41.572;24.730;2022-10-22T15:54:53;47.67;;;30.23;;
59273;SDS011;45044;41.572;24.730;2022-10-22T15:57:20;38.70;;;29.30;;
59273;SDS011;45044;41.572;24.730;2022-10-22T15:59:47;38.70;;;28.48;;
59273;SDS011;45044;41.572;24.730;2022-10-22T16:02:15;36.72;;;29.23;;
59273;SDS011;45044;41.572;24.730;2022-10-22T16:04:42;36.15;;;27.75;;
59273;SDS011;45044;41.572;24.730;2022-10-22T16:07:08;52.80;;;39.38;;
59273;SDS011;45044;41.572;24.730;2022-10-22T16:09:35;45.80;;;33.38;;
59273;SDS011;45044;41.572;24.730;2022-10-22T16:12:02;42.70;;;32.33;;
59273;SDS011;45044;41.572;24.730;2022-10-22T16:14:29;40.88;;;30.42;;
59273;SDS011;45044;41.572;24.730;2022-10-22T16:16:55;36.40;;;28.33;;
59273;SDS011;45044;41.572;24.730;2022-10-22T16:19:23;37.50;;;28.90;;
59273;SDS011;45044;41.572;24.730;2022-10-22T16:21:50;35.78;;;28.92;;
59273;SDS011;45044;41.572;24.730;2022-10-22T16:24:19;46.85;;;35.95;;
59273;SDS011;45044;41.572;24.730;2022-10-22T16:26:46;69.93;;;51.25;;
59273;SDS011;45044;41.572;24.730;2022-10-22T16:29:13;56.30;;;47.63;;
59273;SDS011;45044;41.572;24.730;2022-10-22T16:31:40;46.92;;;40.70;;
59273;SDS011;45044;41.572;24.730;2022-10-22T16:34:09;39.45;;;34.42;;
59273;SDS011;45044;41.572;24.730;2022-10-22T16:36:35;38.63;;;30.70;;